Stolt Surf — ZCSR3 — position and weather

sailwx.info

Track history (hours):
 
Tides and Currents Weather Stations Pressure Air Temp Water Temp Dewpoint Dewpoint Depression Visibility Wind Speed Wind Dir Waves Ship Positions

Stolt Surf

Last reported at 2016-Apr-26 22:33 UTC. Time now 2016-May-03 05:00 UTC.
Position N 22°44' E 120°06'.

Length 163 m; draft 10.2 m.

Type: Ship. MMSI: 319545000.

Date/timePositionNaut miles runAvg speedWind from/ knotsBaromVisibWave heightAir tempDewpointWater temp
2016-Apr-26 22:33N 22°44' E 120°06'1212.3
2016-Apr-26 21:33N 22°37' E 120°17'2 1.7
2016-Apr-26 20:20N 22°35' E 120°18'0 0.0
2016-Apr-26 18:32N 22°35' E 120°18'0 0.0
2016-Apr-26 11:32N 22°35' E 120°18'0 0.0
2016-Apr-26 10:20N 22°35' E 120°18'0 0.0
2016-Apr-26 09:32N 22°35' E 120°18'0 0.0
2016-Apr-26 07:14N 22°35' E 120°18'0 0.0
2016-Apr-26 06:26N 22°35' E 120°18'0 0.0
2016-Apr-26 05:26N 22°35' E 120°18'0 0.0
2016-Apr-26 04:20N 22°35' E 120°18'0 0.0
2016-Apr-26 03:26N 22°35' E 120°18'2 2.4
2016-Apr-26 02:33N 22°37' E 120°17'7 7.2
2016-Apr-26 01:33N 22°35' E 120°09'  
2016-Apr-21 07:32N 01°14' E 104°02'1313.2
2016-Apr-21 06:33N 01°10' E 103°50'1313.1
2016-Apr-21 05:32N 01°02' E 103°39'1010.1
2016-Apr-21 04:33N 01°10' E 103°32'9 9.2
2016-Apr-21 03:34N 01°13' E 103°41'0 0.1
2016-Apr-21 02:31N 01°13' E 103°41'0 0.0
2016-Apr-21 01:25N 01°13' E 103°41'0 0.1
2016-Apr-21 00:28N 01°13' E 103°41'0 0.0
2016-Apr-20 23:28N 01°13' E 103°41'0 0.1
2016-Apr-20 22:28N 01°13' E 103°41'0 0.0
2016-Apr-20 21:31N 01°13' E 103°41'0 0.1
2016-Apr-20 20:19N 01°13' E 103°41'0 0.1
2016-Apr-20 19:25N 01°13' E 103°41'0 0.0
2016-Apr-20 18:25N 01°13' E 103°41'0 0.1
2016-Apr-20 17:22N 01°13' E 103°41'0 0.0
2016-Apr-20 16:22N 01°13' E 103°41'0 0.1
2016-Apr-20 15:31N 01°13' E 103°41'0 0.0
2016-Apr-20 14:31N 01°13' E 103°41'0 0.1
2016-Apr-20 13:31N 01°13' E 103°41'0 0.1
2016-Apr-20 12:31N 01°13' E 103°41'0 0.1
2016-Apr-20 11:31N 01°13' E 103°41'5 2.5
2016-Apr-20 09:33N 01°16' E 103°44'0 0.0
2016-Apr-20 08:33N 01°16' E 103°44'0 0.0
2016-Apr-20 03:18N 01°16' E 103°44'0 0.0
2016-Apr-19 19:09N 01°16' E 103°44'1 2.3
2016-Apr-19 18:33N 01°15' E 103°44'6 5.5
2016-Apr-19 17:29N 01°14' E 103°38'0 0.0
2016-Apr-19 16:26N 01°14' E 103°38'0 0.0
2016-Apr-19 15:26N 01°14' E 103°38'0 0.0
2016-Apr-19 14:29N 01°14' E 103°38'0 0.0
2016-Apr-19 12:05N 01°14' E 103°38'0 0.0
2016-Apr-19 11:14N 01°14' E 103°38'0 0.0
2016-Apr-19 10:23N 01°14' E 103°38'0 0.0
2016-Apr-19 09:26N 01°14' E 103°38'0 0.0
2016-Apr-19 08:23N 01°14' E 103°38'0 0.0
2016-Apr-19 07:29N 01°14' E 103°38'0 0.1
2016-Apr-19 06:32N 01°14' E 103°38'3 2.9
2016-Apr-19 05:33N 01°12' E 103°40'4 3.6
2016-Apr-19 04:33N 01°09' E 103°43'4 4.4
2016-Apr-19 03:33N 01°09' E 103°47'1211.6
2016-Apr-19 02:32N 01°05' E 103°36'  
Track history (hours):
 
Tides and Currents Weather Stations Pressure Air Temp Water Temp Dewpoint Dewpoint Depression Visibility Wind Speed Wind Dir Waves Ship Positions

Stolt Surf

Last reported at 2016-Apr-26 22:33 UTC. Time now 2016-May-03 05:00 UTC.
Position N 22°44' E 120°06'.

Length 163 m; draft 10.2 m.

Type: Ship. MMSI: 319545000.

Date/timePositionNaut miles runAvg speedWind from/ knotsBaromVisibWave heightAir tempDewpointWater temp
2016-Apr-26 22:33N 22°44' E 120°06'1212.3
2016-Apr-26 21:33N 22°37' E 120°17'2 1.7
2016-Apr-26 20:20N 22°35' E 120°18'0 0.0
2016-Apr-26 18:32N 22°35' E 120°18'0 0.0
2016-Apr-26 11:32N 22°35' E 120°18'0 0.0
2016-Apr-26 10:20N 22°35' E 120°18'0 0.0
2016-Apr-26 09:32N 22°35' E 120°18'0 0.0
2016-Apr-26 07:14N 22°35' E 120°18'0 0.0
2016-Apr-26 06:26N 22°35' E 120°18'0 0.0
2016-Apr-26 05:26N 22°35' E 120°18'0 0.0
2016-Apr-26 04:20N 22°35' E 120°18'0 0.0
2016-Apr-26 03:26N 22°35' E 120°18'2 2.4
2016-Apr-26 02:33N 22°37' E 120°17'7 7.2
2016-Apr-26 01:33N 22°35' E 120°09'  
2016-Apr-21 07:32N 01°14' E 104°02'1313.2
2016-Apr-21 06:33N 01°10' E 103°50'1313.1
2016-Apr-21 05:32N 01°02' E 103°39'1010.1
2016-Apr-21 04:33N 01°10' E 103°32'9 9.2
2016-Apr-21 03:34N 01°13' E 103°41'0 0.1
2016-Apr-21 02:31N 01°13' E 103°41'0 0.0
2016-Apr-21 01:25N 01°13' E 103°41'0 0.1
2016-Apr-21 00:28N 01°13' E 103°41'0 0.0
2016-Apr-20 23:28N 01°13' E 103°41'0 0.1
2016-Apr-20 22:28N 01°13' E 103°41'0 0.0
2016-Apr-20 21:31N 01°13' E 103°41'0 0.1
2016-Apr-20 20:19N 01°13' E 103°41'0 0.1
2016-Apr-20 19:25N 01°13' E 103°41'0 0.0
2016-Apr-20 18:25N 01°13' E 103°41'0 0.1
2016-Apr-20 17:22N 01°13' E 103°41'0 0.0
2016-Apr-20 16:22N 01°13' E 103°41'0 0.1
2016-Apr-20 15:31N 01°13' E 103°41'0 0.0
2016-Apr-20 14:31N 01°13' E 103°41'0 0.1
2016-Apr-20 13:31N 01°13' E 103°41'0 0.1
2016-Apr-20 12:31N 01°13' E 103°41'0 0.1
2016-Apr-20 11:31N 01°13' E 103°41'5 2.5
2016-Apr-20 09:33N 01°16' E 103°44'0 0.0
2016-Apr-20 08:33N 01°16' E 103°44'0 0.0
2016-Apr-20 03:18N 01°16' E 103°44'0 0.0
2016-Apr-19 19:09N 01°16' E 103°44'1 2.3
2016-Apr-19 18:33N 01°15' E 103°44'6 5.5
2016-Apr-19 17:29N 01°14' E 103°38'0 0.0
2016-Apr-19 16:26N 01°14' E 103°38'0 0.0
2016-Apr-19 15:26N 01°14' E 103°38'0 0.0
2016-Apr-19 14:29N 01°14' E 103°38'0 0.0
2016-Apr-19 12:05N 01°14' E 103°38'0 0.0
2016-Apr-19 11:14N 01°14' E 103°38'0 0.0
2016-Apr-19 10:23N 01°14' E 103°38'0 0.0
2016-Apr-19 09:26N 01°14' E 103°38'0 0.0
2016-Apr-19 08:23N 01°14' E 103°38'0 0.0
2016-Apr-19 07:29N 01°14' E 103°38'0 0.1
2016-Apr-19 06:32N 01°14' E 103°38'3 2.9
2016-Apr-19 05:33N 01°12' E 103°40'4 3.6
2016-Apr-19 04:33N 01°09' E 103°43'4 4.4
2016-Apr-19 03:33N 01°09' E 103°47'1211.6
2016-Apr-19 02:32N 01°05' E 103°36'  

Dump ship's entire track history